createdAt,value
2019-02-08T00:00:02.198Z,89.4
2019-02-08T00:05:01.551Z,89.35
2019-02-08T00:10:01.924Z,89.34
2019-02-08T00:15:01.215Z,89.42
2019-02-08T00:20:01.816Z,89.52
2019-02-08T00:25:02.158Z,89.48
2019-02-08T00:30:01.489Z,89.26
2019-02-08T00:35:01.852Z,89.26
2019-02-08T00:40:02.125Z,88.9
2019-02-08T00:45:01.424Z,88.43
2019-02-08T00:50:01.739Z,88.25
2019-02-08T00:55:02.035Z,88.2
2019-02-08T01:00:01.290Z,88.6
2019-02-08T01:05:01.637Z,88.53
2019-02-08T01:10:01.960Z,88.92
2019-02-08T01:15:01.240Z,88.8
2019-02-08T01:20:01.545Z,88.67
2019-02-08T01:25:01.816Z,88.04
2019-02-08T01:30:02.063Z,88.01
2019-02-08T01:35:01.443Z,87.88
2019-02-08T01:40:01.842Z,88.04
2019-02-08T01:45:02.152Z,88.53
2019-02-08T01:50:01.582Z,89.06
2019-02-08T01:55:01.935Z,89.02
2019-02-08T02:00:01.189Z,89.37
2019-02-08T02:05:01.757Z,89.75
2019-02-08T02:10:02.068Z,89.42
2019-02-08T02:15:01.367Z,89.24
2019-02-08T02:20:01.561Z,89.13
2019-02-08T02:25:01.822Z,89.16
2019-02-08T02:30:02.091Z,89.35
2019-02-08T02:35:01.388Z,89.38
2019-02-08T02:40:01.697Z,89.65
2019-02-08T02:45:02.041Z,89.81
2019-02-08T02:50:01.343Z,89.6
2019-02-08T02:55:01.643Z,89.81
2019-02-08T03:00:01.922Z,89.8
2019-02-08T03:05:01.221Z,89.82
2019-02-08T03:10:01.523Z,89.81
2019-02-08T03:15:01.767Z,90.07
2019-02-08T03:20:02.059Z,90.04
2019-02-08T03:25:01.426Z,90.29
2019-02-08T03:30:01.674Z,90.25
2019-02-08T03:35:01.942Z,90.43
2019-02-08T03:40:02.087Z,90.62
2019-02-08T03:45:01.338Z,90.73
2019-02-08T03:50:01.625Z,90.69
2019-02-08T03:55:01.911Z,90.81
2019-02-08T04:00:02.045Z,90.63
2019-02-08T04:05:01.329Z,90.65
2019-02-08T04:10:01.627Z,90.87
2019-02-08T04:15:01.970Z,90.56
2019-02-08T04:20:01.318Z,90.49
2019-02-08T04:25:01.628Z,90.45
2019-02-08T04:30:01.932Z,90.42
2019-02-08T04:35:01.317Z,90.42
2019-02-08T04:40:01.681Z,90.23
2019-02-08T04:45:02.011Z,90.07
2019-02-08T04:50:01.265Z,90.09
2019-02-08T04:55:01.547Z,89.93
2019-02-08T05:00:01.858Z,89.98
2019-02-08T05:05:02.119Z,89.97
2019-02-08T05:10:01.371Z,89.94
2019-02-08T05:15:01.644Z,89.87
2019-02-08T05:20:01.992Z,89.84
2019-02-08T05:25:01.251Z,90.29
2019-02-08T05:30:01.520Z,90.56
2019-02-08T05:35:02.070Z,90.54
2019-02-08T05:40:01.503Z,90.75
2019-02-08T05:45:01.842Z,90.5
2019-02-08T05:50:02.079Z,90.78
2019-02-08T05:55:01.370Z,90.72
2019-02-08T06:00:01.674Z,91.01
2019-02-08T06:05:02.036Z,91.01
2019-02-08T06:10:01.358Z,90.81
2019-02-08T06:15:01.742Z,90.7
2019-02-08T06:20:02.049Z,90.4
2019-02-08T06:25:04.742Z,90.11
2019-02-08T06:30:01.223Z,89.69
2019-02-08T06:35:01.599Z,89.9
2019-02-08T06:40:01.977Z,89.71
2019-02-08T06:45:01.296Z,89.52
2019-02-08T06:50:01.609Z,89.24
2019-02-08T06:55:01.909Z,89.16
2019-02-08T07:00:01.228Z,88.75
2019-02-08T07:05:01.539Z,88.87
2019-02-08T07:10:01.850Z,88.82
2019-02-08T07:15:02.146Z,88.91
2019-02-08T07:20:01.415Z,88.78
2019-02-08T07:25:01.736Z,88.7
2019-02-08T07:30:02.026Z,88.49
2019-02-08T07:35:01.344Z,88.59
2019-02-08T07:40:01.611Z,88.7
2019-02-08T07:45:01.892Z,88.45
2019-02-08T07:50:01.205Z,88.15
2019-02-08T07:55:01.561Z,88.32
2019-02-08T08:00:01.842Z,88.43
2019-02-08T08:05:02.143Z,88.24
2019-02-08T08:10:01.408Z,88.2
2019-02-08T08:15:01.703Z,88.04
2019-02-08T08:20:01.990Z,88.38
2019-02-08T08:25:01.232Z,88.07
2019-02-08T08:30:01.555Z,87.75
2019-02-08T08:35:01.881Z,88.25
2019-02-08T08:40:02.134Z,87.85
2019-02-08T08:45:01.368Z,87.92
2019-02-08T08:50:01.658Z,88.14
2019-02-08T08:55:01.972Z,88.3
2019-02-08T09:00:01.244Z,88.01
2019-02-08T09:05:01.549Z,88
2019-02-08T09:10:01.856Z,88.08
2019-02-08T09:15:02.140Z,87.71
2019-02-08T09:20:01.382Z,87.93
2019-02-08T09:25:01.633Z,87.69
2019-02-08T09:30:01.898Z,87.46
2019-02-08T09:35:01.230Z,87.17
2019-02-08T09:40:01.476Z,87.13
2019-02-08T09:45:01.768Z,86.8
2019-02-08T09:50:02.041Z,87.01
2019-02-08T09:55:01.298Z,86.63
2019-02-08T10:00:01.571Z,86.24
2019-02-08T10:05:01.856Z,85.74
2019-02-08T10:10:02.145Z,86.21
2019-02-08T10:15:01.493Z,85.89
2019-02-08T10:20:01.783Z,85.21
2019-02-08T10:25:02.074Z,85.23
2019-02-08T10:30:01.394Z,85.21
2019-02-08T10:35:01.717Z,85.18
2019-02-08T10:40:02.018Z,85.24
2019-02-08T10:45:01.269Z,84.66
2019-02-08T10:50:01.604Z,84.25
2019-02-08T10:55:01.870Z,84.34
2019-02-08T11:00:02.157Z,83.54
2019-02-08T11:05:01.442Z,83.44
2019-02-08T11:10:01.719Z,83.6
2019-02-08T11:15:01.985Z,83.3
2019-02-08T11:20:01.267Z,83.95
2019-02-08T11:25:01.556Z,83.6
2019-02-08T11:30:01.921Z,83.71
2019-02-08T11:35:01.207Z,83.77
2019-02-08T11:40:01.483Z,83.69
2019-02-08T11:45:01.784Z,83.72
2019-02-08T11:50:02.099Z,84.36
2019-02-08T11:55:01.418Z,83.9
2019-02-08T12:00:01.716Z,84.31
2019-02-08T12:05:02.016Z,84.13
2019-02-08T12:10:01.354Z,84.53
2019-02-08T12:15:01.712Z,84.45
2019-02-08T12:20:02.042Z,84.85
2019-02-08T12:25:01.347Z,84.75
2019-02-08T12:30:01.654Z,85.34
2019-02-08T12:35:02.008Z,85.21
2019-02-08T12:40:01.318Z,85.68
2019-02-08T12:45:01.648Z,85.68
2019-02-08T12:50:01.945Z,85.63
2019-02-08T12:55:01.239Z,85.45
2019-02-08T13:00:01.509Z,85.8
2019-02-08T13:05:01.786Z,85.63
2019-02-08T13:10:02.034Z,85.97
2019-02-08T13:15:01.308Z,86.18
2019-02-08T13:20:01.586Z,86.62
2019-02-08T13:25:01.901Z,87.07
2019-02-08T13:30:01.206Z,87.14
2019-02-08T13:35:01.566Z,87.74
2019-02-08T13:40:01.903Z,87.88
2019-02-08T13:45:01.233Z,87.96
2019-02-08T13:50:01.612Z,88
2019-02-08T13:55:01.911Z,88.1
2019-02-08T14:00:01.199Z,88.26
2019-02-08T14:05:01.540Z,88.34
2019-02-08T14:10:01.859Z,88.3
2019-02-08T14:15:02.126Z,88.26
2019-02-08T14:20:01.694Z,88.33
2019-02-08T14:25:02.049Z,88.28
2019-02-08T14:30:01.359Z,88.01
2019-02-08T14:35:01.675Z,87.76
2019-02-08T14:40:01.950Z,87.57
2019-02-08T14:45:01.353Z,87.31
2019-02-08T14:50:01.663Z,86.74
2019-02-08T14:55:01.939Z,86.53
2019-02-08T15:00:01.230Z,86.33
2019-02-08T15:05:01.909Z,85.77
2019-02-08T15:10:01.284Z,85.57
2019-02-08T15:15:01.565Z,85.39
2019-02-08T15:20:01.870Z,85
2019-02-08T15:25:01.242Z,84.94
2019-02-08T15:30:01.564Z,84.5
2019-02-08T15:35:01.862Z,84.28
2019-02-08T15:40:02.008Z,84.01
2019-02-08T15:45:01.339Z,83.76
2019-02-08T15:50:01.784Z,83.27
2019-02-08T15:55:02.056Z,83.23
2019-02-08T16:00:01.443Z,82.76
2019-02-08T16:05:01.814Z,82.05
2019-02-08T16:10:02.096Z,82.29
2019-02-08T16:15:01.343Z,81.89
2019-02-08T16:20:01.678Z,81.96
2019-02-08T16:25:01.965Z,81.7
2019-02-08T16:30:01.226Z,81.58
2019-02-08T16:35:01.554Z,81.38
2019-02-08T16:40:01.874Z,81.48
2019-02-08T16:45:02.132Z,81.3
2019-02-08T16:50:01.406Z,81.41
2019-02-08T16:55:01.713Z,81.22
2019-02-08T17:00:02.041Z,81.24
2019-02-08T17:05:01.292Z,81.09
2019-02-08T17:10:01.556Z,80.94
2019-02-08T17:15:01.885Z,80.93
2019-02-08T17:20:02.201Z,81.08
2019-02-08T17:25:01.428Z,81.08
2019-02-08T17:30:01.760Z,80.76
2019-02-08T17:35:02.052Z,80.98
2019-02-08T17:40:01.373Z,80.89
2019-02-08T17:45:01.665Z,80.87
2019-02-08T17:50:02.003Z,81.21
2019-02-08T17:55:01.249Z,81.39
2019-02-08T18:00:01.750Z,81.48
2019-02-08T18:05:02.089Z,81.6
2019-02-08T18:10:01.359Z,81.64
2019-02-08T18:15:01.650Z,81.6
2019-02-08T18:20:02.018Z,81.47
2019-02-08T18:25:01.287Z,81.43
2019-02-08T18:30:01.594Z,81.6
2019-02-08T18:35:01.911Z,81.46
2019-02-08T18:40:01.278Z,81.41
2019-02-08T18:45:01.549Z,81.17
2019-02-08T18:50:01.852Z,81.15
2019-02-08T18:55:02.216Z,81.35
2019-02-08T19:00:01.601Z,81.24
2019-02-08T19:05:01.893Z,80.83
2019-02-08T19:10:02.121Z,80.53
2019-02-08T19:15:01.432Z,80.67
2019-02-08T19:20:01.740Z,80.64
2019-02-08T19:25:02.024Z,80.8
2019-02-08T19:30:01.298Z,80.7
2019-02-08T19:35:01.684Z,80.54
2019-02-08T19:40:02.011Z,80.47
2019-02-08T19:45:01.284Z,79.96
2019-02-08T19:50:01.560Z,80.03
2019-02-08T19:55:01.887Z,80.29
2019-02-08T20:00:02.150Z,80.28
2019-02-08T20:05:01.456Z,80.26
2019-02-08T20:10:01.769Z,80.3
2019-02-08T20:15:02.114Z,80.08
2019-02-08T20:20:01.481Z,79.9
2019-02-08T20:25:01.771Z,79.67
2019-02-08T20:30:02.127Z,79.38
2019-02-08T20:35:01.422Z,79.91
2019-02-08T20:40:01.969Z,80.18
2019-02-08T20:45:01.326Z,79.99
2019-02-08T20:50:01.716Z,79.63
2019-02-08T20:55:01.997Z,79.52
2019-02-08T21:00:01.254Z,79.52
2019-02-08T21:05:01.575Z,79.58
2019-02-08T21:10:01.882Z,79.56
2019-02-08T21:15:01.388Z,79.5
2019-02-08T21:20:01.665Z,79.51
2019-02-08T21:25:01.926Z,79.41
2019-02-08T21:30:01.303Z,79.09
2019-02-08T21:35:01.634Z,78.8
2019-02-08T21:40:01.951Z,78.9
2019-02-08T21:45:01.237Z,78.88
2019-02-08T21:50:01.566Z,78.86
2019-02-08T21:55:01.892Z,78.84
2019-02-08T22:00:02.147Z,79.06
2019-02-08T22:05:01.453Z,78.86
2019-02-08T22:10:01.787Z,79.16
2019-02-08T22:15:02.078Z,79.49
2019-02-08T22:20:01.362Z,79.54
2019-02-08T22:25:01.639Z,79.12
2019-02-08T22:30:01.945Z,78.95
2019-02-08T22:35:01.221Z,78.8
2019-02-08T22:40:01.512Z,78.87
2019-02-08T22:45:09.189Z,78.58
2019-02-08T22:50:01.485Z,78.7
2019-02-08T22:55:01.789Z,78.29
2019-02-08T23:00:02.100Z,78.59
2019-02-08T23:05:01.434Z,78.53
2019-02-08T23:10:01.710Z,78.68
2019-02-08T23:15:02.003Z,78.76
2019-02-08T23:20:01.284Z,78.54
2019-02-08T23:25:01.634Z,78.59
2019-02-08T23:30:01.901Z,78.51
2019-02-08T23:35:01.225Z,78.26
2019-02-08T23:40:01.510Z,78.25
2019-02-08T23:45:01.801Z,78.34
2019-02-08T23:50:02.061Z,78.27
2019-02-08T23:55:01.339Z,78.08
